createdAt,value
2019-05-05T00:02:44.801Z,3.90
2019-05-05T00:05:28.697Z,6.67
2019-05-05T00:07:58.275Z,3.20
2019-05-05T00:10:45.361Z,3.00
2019-05-05T00:13:34.561Z,4.50
2019-05-05T00:16:17.356Z,3.20
2019-05-05T00:18:47.931Z,3.87
2019-05-05T00:21:20.758Z,3.67
2019-05-05T00:23:50.468Z,3.90
2019-05-05T00:26:20.274Z,3.63
2019-05-05T00:28:50.049Z,3.50
2019-05-05T00:31:19.841Z,4.30
2019-05-05T00:33:49.510Z,4.73
2019-05-05T00:36:19.240Z,4.97
2019-05-05T00:38:48.910Z,5.30
2019-05-05T00:41:18.920Z,7.17
2019-05-05T00:43:49.750Z,6.10
2019-05-05T00:46:36.030Z,9.67
2019-05-05T00:49:05.787Z,6.13
2019-05-05T00:51:35.475Z,5.60
2019-05-05T00:54:05.079Z,4.90
2019-05-05T00:56:35.015Z,4.87
2019-05-05T00:59:07.319Z,6.33
2019-05-05T01:01:41.485Z,4.50
2019-05-05T01:04:14.482Z,4.90
2019-05-05T01:06:45.114Z,4.90
2019-05-05T01:09:16.645Z,4.60
2019-05-05T01:11:46.327Z,7.00
2019-05-05T01:14:17.900Z,4.57
2019-05-05T01:16:48.131Z,5.40
2019-05-05T01:19:17.827Z,6.17
2019-05-05T01:21:47.469Z,6.37
2019-05-05T01:24:17.087Z,4.20
2019-05-05T01:26:46.715Z,4.77
2019-05-05T01:29:16.467Z,4.80
2019-05-05T01:31:49.552Z,6.40
2019-05-05T01:34:30.085Z,4.67
2019-05-05T01:37:04.923Z,5.63
2019-05-05T01:39:41.045Z,4.93
2019-05-05T01:42:14.214Z,8.47
2019-05-05T01:44:44.799Z,6.47
2019-05-05T01:47:25.446Z,7.53
2019-05-05T01:49:55.193Z,8.30
2019-05-05T01:52:25.547Z,7.20
2019-05-05T01:54:55.133Z,5.60
2019-05-05T01:57:26.204Z,6.30
2019-05-05T01:59:57.880Z,6.47
2019-05-05T02:02:27.567Z,6.00
2019-05-05T02:04:57.355Z,5.83
2019-05-05T02:07:27.097Z,6.27
2019-05-05T02:09:56.693Z,5.13
2019-05-05T02:12:26.451Z,6.07
2019-05-05T02:14:56.101Z,8.77
2019-05-05T02:17:25.681Z,6.57
2019-05-05T02:19:55.365Z,5.80
2019-05-05T02:22:25.393Z,6.23
2019-05-05T02:24:56.268Z,6.63
2019-05-05T02:27:25.962Z,10.50
2019-05-05T02:30:12.209Z,9.20
2019-05-05T02:32:45.225Z,7.87
2019-05-05T02:35:18.372Z,7.90
2019-05-05T02:37:48.000Z,10.70
2019-05-05T02:40:19.062Z,8.60
2019-05-05T02:42:48.702Z,6.70
2019-05-05T02:45:35.364Z,9.97
2019-05-05T02:48:10.329Z,6.70
2019-05-05T02:51:00.285Z,7.33
2019-05-05T02:53:27.131Z,7.90
2019-05-05T02:55:58.913Z,8.80
2019-05-05T02:58:30.247Z,9.27
2019-05-05T03:01:08.545Z,12.20
2019-05-05T03:03:38.613Z,11.60
2019-05-05T03:06:08.314Z,4.03
2019-05-05T03:08:39.237Z,3.77
2019-05-05T03:11:11.205Z,1.90
2019-05-05T03:13:45.044Z,1.30
2019-05-05T03:16:16.380Z,0.93
2019-05-05T03:18:46.527Z,0.70
2019-05-05T03:21:18.888Z,0.80
2019-05-05T03:23:50.622Z,0.93
2019-05-05T03:26:23.447Z,1.00
2019-05-05T03:28:57.873Z,1.10
2019-05-05T03:31:27.625Z,1.00
2019-05-05T03:33:57.243Z,2.23
2019-05-05T03:36:27.293Z,1.10
2019-05-05T03:38:57.114Z,0.97
2019-05-05T03:41:31.779Z,0.80
2019-05-05T03:44:09.088Z,0.80
2019-05-05T03:46:38.692Z,0.90
2019-05-05T03:49:09.699Z,3.17
2019-05-05T03:51:39.386Z,6.10
2019-05-05T03:54:10.182Z,1.23
2019-05-05T03:56:39.783Z,0.90
2019-05-05T03:59:09.422Z,1.17
2019-05-05T04:01:43.974Z,0.93
2019-05-05T04:04:24.655Z,2.30
2019-05-05T04:06:58.090Z,0.93
2019-05-05T04:09:27.734Z,1.33
2019-05-05T04:11:57.496Z,1.07
2019-05-05T04:14:27.075Z,1.80
2019-05-05T04:17:14.868Z,2.23
2019-05-05T04:19:58.316Z,0.90
2019-05-05T04:22:29.854Z,1.70
2019-05-05T04:24:59.347Z,1.03
2019-05-05T04:27:28.936Z,0.87
2019-05-05T04:29:58.483Z,1.20
2019-05-05T04:32:28.104Z,2.30
2019-05-05T04:34:57.773Z,1.20
2019-05-05T04:37:27.381Z,0.80
2019-05-05T04:39:56.966Z,0.60
2019-05-05T04:42:26.528Z,0.30
2019-05-05T04:44:56.252Z,0.43
2019-05-05T04:47:39.465Z,0.50
2019-05-05T04:50:10.737Z,1.13
2019-05-05T04:52:40.312Z,0.57
2019-05-05T04:55:09.896Z,0.40
2019-05-05T04:57:39.530Z,0.40
2019-05-05T05:00:09.144Z,1.20
2019-05-05T05:02:45.952Z,0.63
2019-05-05T05:05:29.316Z,0.40
2019-05-05T05:07:58.857Z,0.30
2019-05-05T05:10:28.455Z,0.23
2019-05-05T05:12:59.120Z,1.17
2019-05-05T05:15:28.619Z,0.77
2019-05-05T05:17:59.953Z,0.70
2019-05-05T05:20:31.223Z,0.60
2019-05-05T05:23:03.625Z,0.17
2019-05-05T05:25:41.380Z,0.20
2019-05-05T05:28:10.523Z,0.30
2019-05-05T05:30:49.237Z,3.23
2019-05-05T05:33:30.164Z,1.67
2019-05-05T05:36:04.011Z,0.10
2019-05-05T05:38:38.227Z,0.20
2019-05-05T05:41:50.366Z,1.63
2019-05-05T05:44:05.158Z,1.40
2019-05-05T05:46:43.878Z,0.33
2019-05-05T05:49:15.069Z,0.20
2019-05-05T05:51:44.761Z,1.40
2019-05-05T05:54:15.277Z,0.77
2019-05-05T05:56:44.793Z,0.50
2019-05-05T05:59:14.235Z,0.40
2019-05-05T06:01:43.798Z,0.20
2019-05-05T06:04:14.533Z,0.37
2019-05-05T06:06:44.117Z,0.27
2019-05-05T06:09:14.840Z,0.30
2019-05-05T06:11:44.457Z,1.13
2019-05-05T06:14:14.566Z,1.27
2019-05-05T06:16:44.650Z,0.30
2019-05-05T06:19:14.228Z,0.63
2019-05-05T06:21:44.049Z,8.07
2019-05-05T06:24:13.769Z,4.17
2019-05-05T06:26:44.521Z,0.50
2019-05-05T06:29:14.648Z,0.40
2019-05-05T06:31:44.808Z,0.50
2019-05-05T06:34:14.385Z,0.43
2019-05-05T06:36:44.475Z,1.23
2019-05-05T06:39:15.343Z,1.07
2019-05-05T06:41:49.406Z,1.70
2019-05-05T06:44:35.776Z,0.40
2019-05-05T06:47:06.955Z,1.20
2019-05-05T06:49:36.519Z,1.00
2019-05-05T06:52:05.966Z,1.17
2019-05-05T06:54:35.422Z,0.53
2019-05-05T06:57:04.936Z,2.33
2019-05-05T06:59:35.067Z,0.40
2019-05-05T07:02:04.804Z,0.63
2019-05-05T07:04:34.287Z,1.70
2019-05-05T07:07:05.160Z,3.07
2019-05-05T07:09:34.935Z,1.67
2019-05-05T07:12:04.744Z,0.57
2019-05-05T07:14:34.436Z,1.53
2019-05-05T07:17:05.113Z,1.60
2019-05-05T07:19:34.775Z,2.00
2019-05-05T07:22:04.303Z,0.40
2019-05-05T07:24:34.483Z,4.40
2019-05-05T07:27:04.718Z,1.82
2019-05-05T07:29:34.508Z,0.73
2019-05-05T07:32:04.271Z,0.47
2019-05-05T07:34:51.922Z,0.73
2019-05-05T07:37:23.700Z,2.00
2019-05-05T07:39:53.991Z,0.97
2019-05-05T07:42:24.318Z,2.63
2019-05-05T07:44:55.126Z,0.30
2019-05-05T07:47:24.693Z,2.20
2019-05-05T07:49:54.170Z,0.70
2019-05-05T07:52:23.899Z,1.27
2019-05-05T07:54:55.214Z,0.42
2019-05-05T07:57:24.680Z,0.40
2019-05-05T07:59:54.143Z,0.33
2019-05-05T08:02:23.794Z,0.30
2019-05-05T08:04:54.402Z,0.50
2019-05-05T08:07:24.157Z,0.53
2019-05-05T08:09:53.877Z,0.73
2019-05-05T08:12:24.922Z,1.13
2019-05-05T08:14:54.584Z,1.30
2019-05-05T08:17:25.723Z,1.43
2019-05-05T08:20:04.031Z,3.10
2019-05-05T08:22:34.037Z,0.30
2019-05-05T08:25:14.593Z,0.60
2019-05-05T08:27:48.467Z,0.60
2019-05-05T08:30:24.313Z,0.87
2019-05-05T08:32:54.476Z,1.47
2019-05-05T08:35:24.332Z,0.60
2019-05-05T08:37:54.336Z,0.80
2019-05-05T08:40:24.061Z,3.10
2019-05-05T08:42:54.036Z,1.70
2019-05-05T08:45:26.667Z,0.70
2019-05-05T08:47:54.858Z,0.70
2019-05-05T08:50:26.949Z,0.50
2019-05-05T08:52:55.461Z,1.10
2019-05-05T08:55:28.273Z,2.30
2019-05-05T08:57:56.098Z,1.50
2019-05-05T09:00:25.589Z,1.37
2019-05-05T09:02:55.043Z,2.03
2019-05-05T09:05:24.496Z,1.47
2019-05-05T09:07:54.761Z,4.40
2019-05-05T09:10:24.626Z,2.55
2019-05-05T09:12:54.346Z,1.20
2019-05-05T09:15:24.356Z,1.83
2019-05-05T09:17:54.526Z,0.80
2019-05-05T09:20:25.221Z,1.62
2019-05-05T09:22:57.279Z,2.60
2019-05-05T09:25:30.456Z,1.00
2019-05-05T09:28:06.188Z,1.00
2019-05-05T09:30:44.466Z,2.72
2019-05-05T09:33:14.294Z,1.10
2019-05-05T09:35:45.199Z,2.17
2019-05-05T09:38:14.919Z,0.60
2019-05-05T09:40:44.306Z,0.90
2019-05-05T09:43:14.816Z,1.00
2019-05-05T09:45:44.982Z,1.10
2019-05-05T09:48:14.381Z,1.13
2019-05-05T09:50:43.957Z,0.93
2019-05-05T09:53:14.594Z,0.80
2019-05-05T09:55:44.451Z,1.00
2019-05-05T09:58:14.033Z,1.00
2019-05-05T10:00:45.200Z,1.03
2019-05-05T10:03:14.779Z,1.20
2019-05-05T10:05:45.217Z,1.07
2019-05-05T10:08:14.684Z,1.27
2019-05-05T10:10:45.427Z,1.47
2019-05-05T10:13:15.108Z,2.00
2019-05-05T10:15:44.726Z,1.92
2019-05-05T10:18:14.341Z,1.40
2019-05-05T10:20:43.810Z,1.87
2019-05-05T10:23:14.428Z,0.50
2019-05-05T10:25:45.619Z,0.50
2019-05-05T10:28:15.150Z,1.77
2019-05-05T10:30:44.718Z,0.70
2019-05-05T10:33:14.416Z,0.60
2019-05-05T10:35:44.083Z,1.53
2019-05-05T10:38:14.863Z,0.70
2019-05-05T10:40:44.806Z,0.53
2019-05-05T10:43:16.602Z,0.60
2019-05-05T10:45:46.098Z,2.10
2019-05-05T10:48:17.778Z,0.70
2019-05-05T10:50:47.399Z,0.67
2019-05-05T10:53:16.892Z,0.67
2019-05-05T10:55:48.091Z,1.60
2019-05-05T10:58:17.849Z,1.67
2019-05-05T11:00:49.836Z,0.83
2019-05-05T11:03:19.390Z,2.33
2019-05-05T11:05:48.877Z,1.00
2019-05-05T11:08:18.424Z,0.70
2019-05-05T11:10:47.992Z,0.70
2019-05-05T11:13:17.540Z,0.80
2019-05-05T11:15:47.118Z,0.50
2019-05-05T11:18:16.691Z,0.50
2019-05-05T11:20:46.232Z,2.10
2019-05-05T11:23:15.699Z,0.40
2019-05-05T11:25:46.256Z,0.60
2019-05-05T11:28:15.725Z,0.77
2019-05-05T11:30:46.666Z,0.50
2019-05-05T11:33:27.955Z,0.83
2019-05-05T11:35:59.098Z,0.50
2019-05-05T11:38:28.635Z,0.40
2019-05-05T11:40:58.396Z,0.30
2019-05-05T11:43:27.856Z,0.40
2019-05-05T11:45:57.251Z,0.30
2019-05-05T11:48:26.840Z,0.60
2019-05-05T11:50:56.313Z,1.13
2019-05-05T11:53:25.847Z,0.90
2019-05-05T11:55:56.367Z,0.40
2019-05-05T11:58:25.894Z,0.30
2019-05-05T12:00:55.292Z,0.97
2019-05-05T12:03:24.824Z,0.70
2019-05-05T12:05:54.422Z,0.50
2019-05-05T12:08:23.957Z,0.47
2019-05-05T12:10:59.051Z,0.50
2019-05-05T12:13:28.510Z,0.50
2019-05-05T12:16:04.557Z,0.60
2019-05-05T12:18:34.267Z,0.47
2019-05-05T12:21:05.052Z,0.60
2019-05-05T12:23:36.682Z,1.23
2019-05-05T12:26:24.420Z,0.60
2019-05-05T12:28:55.551Z,0.43
2019-05-05T12:31:26.914Z,0.50
2019-05-05T12:33:56.398Z,3.13
2019-05-05T12:36:25.860Z,0.60
2019-05-05T12:38:55.355Z,0.83
2019-05-05T12:41:24.753Z,0.60
2019-05-05T12:43:54.846Z,0.60
2019-05-05T12:46:29.119Z,0.53
2019-05-05T12:49:00.248Z,0.60
2019-05-05T12:51:29.754Z,1.82
2019-05-05T12:53:59.206Z,0.70
2019-05-05T12:56:28.659Z,1.20
2019-05-05T12:58:58.081Z,1.00
2019-05-05T13:01:38.131Z,0.80
2019-05-05T13:04:07.688Z,0.77
2019-05-05T13:06:37.260Z,2.40
2019-05-05T13:09:07.601Z,0.80
2019-05-05T13:11:37.202Z,0.70
2019-05-05T13:14:06.599Z,0.80
2019-05-05T13:16:36.111Z,0.70
2019-05-05T13:19:07.230Z,2.00
2019-05-05T13:21:50.130Z,1.03
2019-05-05T13:24:21.246Z,0.60
2019-05-05T13:26:54.078Z,0.63
2019-05-05T13:29:24.573Z,0.80
2019-05-05T13:31:55.594Z,0.70
2019-05-05T13:34:25.053Z,1.00
2019-05-05T13:36:55.766Z,0.72
2019-05-05T13:39:25.264Z,2.27
2019-05-05T13:41:54.804Z,0.90
2019-05-05T13:44:28.735Z,0.80
2019-05-05T13:46:58.286Z,0.97
2019-05-05T13:49:32.276Z,0.90
2019-05-05T13:52:04.639Z,0.73
2019-05-05T13:54:34.462Z,0.70
2019-05-05T13:57:04.073Z,1.17
2019-05-05T13:59:34.022Z,0.93
2019-05-05T14:02:03.911Z,1.00
2019-05-05T14:04:35.168Z,1.12
2019-05-05T14:07:04.795Z,0.83
2019-05-05T14:09:34.327Z,1.57
2019-05-05T14:12:04.175Z,1.30
2019-05-05T14:14:34.894Z,1.80
2019-05-05T14:17:04.359Z,2.30
2019-05-05T14:19:35.150Z,1.00
2019-05-05T14:22:04.681Z,1.30
2019-05-05T14:24:35.868Z,1.67
2019-05-05T14:27:05.580Z,1.77
2019-05-05T14:29:39.782Z,6.27
2019-05-05T14:32:10.910Z,1.43
2019-05-05T14:34:44.042Z,1.83
2019-05-05T14:37:26.547Z,2.03
2019-05-05T14:39:56.107Z,1.20
2019-05-05T14:42:25.674Z,1.87
2019-05-05T14:44:55.261Z,0.90
2019-05-05T14:47:24.688Z,1.00
2019-05-05T14:49:54.319Z,3.50
2019-05-05T14:52:24.792Z,1.30
2019-05-05T14:54:54.649Z,1.53
2019-05-05T14:57:30.265Z,1.23
2019-05-05T14:59:59.853Z,1.33
2019-05-05T15:02:29.511Z,1.20
2019-05-05T15:05:00.762Z,0.93
2019-05-05T15:07:37.978Z,1.20
2019-05-05T15:10:15.351Z,1.30
2019-05-05T15:12:46.424Z,1.03
2019-05-05T15:15:15.986Z,1.30
2019-05-05T15:17:45.520Z,1.30
2019-05-05T15:20:15.129Z,1.00
2019-05-05T15:22:44.490Z,0.93
2019-05-05T15:25:13.953Z,0.93
2019-05-05T15:27:45.108Z,2.93
2019-05-05T15:30:14.971Z,2.43
2019-05-05T15:32:44.465Z,1.43
2019-05-05T15:35:14.356Z,1.70
2019-05-05T15:37:43.831Z,1.97
2019-05-05T15:40:14.303Z,2.57
2019-05-05T15:42:44.128Z,1.70
2019-05-05T15:45:13.691Z,1.30
2019-05-05T15:47:43.544Z,1.50
2019-05-05T15:50:13.857Z,2.33
2019-05-05T15:52:44.063Z,1.67
2019-05-05T15:55:15.252Z,1.33
2019-05-05T15:57:44.690Z,2.60
2019-05-05T16:00:14.371Z,2.83
2019-05-05T16:02:45.121Z,1.17
2019-05-05T16:05:35.300Z,1.30
2019-05-05T16:08:04.879Z,2.30
2019-05-05T16:10:34.798Z,1.20
2019-05-05T16:13:04.590Z,2.10
2019-05-05T16:15:36.299Z,1.80
2019-05-05T16:18:13.802Z,0.97
2019-05-05T16:20:50.803Z,1.63
2019-05-05T16:23:22.002Z,1.00
2019-05-05T16:25:51.510Z,1.30
2019-05-05T16:28:20.914Z,2.20
2019-05-05T16:30:50.472Z,2.70
2019-05-05T16:33:19.948Z,2.20
2019-05-05T16:35:49.355Z,1.17
2019-05-05T16:38:18.871Z,5.30
2019-05-05T16:40:48.395Z,1.60
2019-05-05T16:43:17.864Z,1.70
2019-05-05T16:45:47.463Z,2.60
2019-05-05T16:48:17.016Z,1.37
2019-05-05T16:50:46.584Z,1.50
2019-05-05T16:53:35.085Z,1.90
2019-05-05T16:56:07.023Z,1.50
2019-05-05T16:58:36.515Z,1.20
2019-05-05T17:01:07.706Z,2.60
2019-05-05T17:03:37.176Z,1.80
2019-05-05T17:06:06.625Z,2.13
2019-05-05T17:08:36.078Z,2.00
2019-05-05T17:11:07.232Z,2.10
2019-05-05T17:13:38.353Z,3.10
2019-05-05T17:16:15.391Z,2.00
2019-05-05T17:18:54.121Z,1.60
2019-05-05T17:21:28.075Z,1.43
2019-05-05T17:23:57.567Z,1.30
2019-05-05T17:26:27.125Z,2.73
2019-05-05T17:28:56.630Z,1.20
2019-05-05T17:31:26.159Z,1.80
2019-05-05T17:33:55.602Z,2.00
2019-05-05T17:36:25.130Z,1.77
2019-05-05T17:38:54.617Z,1.40
2019-05-05T17:41:25.718Z,1.60
2019-05-05T17:43:56.887Z,1.60
2019-05-05T17:46:30.720Z,1.23
2019-05-05T17:49:04.733Z,1.03
2019-05-05T17:51:45.201Z,1.70
2019-05-05T17:54:16.388Z,1.03
2019-05-05T17:56:45.921Z,1.40
2019-05-05T17:59:15.416Z,2.37
2019-05-05T18:01:44.833Z,1.23
2019-05-05T18:04:14.361Z,2.33
2019-05-05T18:06:57.225Z,1.10
2019-05-05T18:09:30.843Z,1.03
2019-05-05T18:12:07.590Z,1.00
2019-05-05T18:14:38.652Z,1.40
2019-05-05T18:17:08.063Z,4.90
2019-05-05T18:19:37.541Z,4.25
2019-05-05T18:22:08.196Z,8.80
2019-05-05T18:24:37.659Z,1.90
2019-05-05T18:27:07.088Z,1.80
2019-05-05T18:29:36.513Z,2.87
2019-05-05T18:32:06.072Z,1.93
2019-05-05T18:34:35.624Z,2.00
2019-05-05T18:37:05.133Z,1.90
2019-05-05T18:39:34.603Z,2.00
2019-05-05T18:42:05.836Z,1.73
2019-05-05T18:44:37.036Z,2.87
2019-05-05T18:47:14.524Z,2.83
2019-05-05T18:49:42.146Z,2.23
2019-05-05T18:52:13.708Z,2.77
2019-05-05T18:54:43.612Z,1.20
2019-05-05T18:57:13.584Z,1.60
2019-05-05T18:59:44.723Z,1.30
2019-05-05T19:02:15.872Z,1.50
2019-05-05T19:04:49.949Z,1.87
2019-05-05T19:07:27.069Z,1.70
2019-05-05T19:09:57.061Z,1.13
2019-05-05T19:12:26.652Z,1.07
2019-05-05T19:14:56.104Z,1.80
2019-05-05T19:17:28.550Z,1.33
2019-05-05T19:19:58.312Z,1.30
2019-05-05T19:22:27.892Z,1.13
2019-05-05T19:24:59.052Z,1.40
2019-05-05T19:27:28.518Z,0.90
2019-05-05T19:29:58.013Z,1.33
2019-05-05T19:32:27.438Z,1.05
2019-05-05T19:34:57.009Z,1.22
2019-05-05T19:37:26.427Z,3.30
2019-05-05T19:39:55.942Z,1.45
2019-05-05T19:42:25.441Z,1.42
2019-05-05T19:44:54.986Z,1.50
2019-05-05T19:47:24.744Z,2.45
2019-05-05T19:49:55.996Z,2.00
2019-05-05T19:52:27.088Z,2.00
2019-05-05T19:54:57.822Z,2.90
2019-05-05T19:57:30.281Z,1.80
2019-05-05T20:00:00.403Z,1.80
2019-05-05T20:02:30.152Z,4.70
2019-05-05T20:04:59.859Z,1.27
2019-05-05T20:07:30.748Z,2.67
2019-05-05T20:10:00.424Z,1.10
2019-05-05T20:12:30.313Z,3.43
2019-05-05T20:15:01.462Z,1.30
2019-05-05T20:17:33.858Z,2.03
2019-05-05T20:20:04.911Z,1.23
2019-05-05T20:22:36.052Z,0.90
2019-05-05T20:25:06.798Z,1.10
2019-05-05T20:27:36.489Z,2.77
2019-05-05T20:30:07.263Z,0.93
2019-05-05T20:32:38.536Z,1.20
2019-05-05T20:35:15.764Z,1.13
2019-05-05T20:37:47.019Z,1.60
2019-05-05T20:40:18.709Z,2.07
2019-05-05T20:42:48.409Z,0.97
2019-05-05T20:45:20.363Z,8.70
2019-05-05T20:47:50.032Z,1.10
2019-05-05T20:50:20.461Z,1.57
2019-05-05T20:52:50.011Z,1.40
2019-05-05T20:55:20.780Z,1.30
2019-05-05T20:57:50.418Z,1.43
2019-05-05T21:00:20.210Z,1.40
2019-05-05T21:02:49.851Z,1.17
2019-05-05T21:05:19.607Z,1.40
2019-05-05T21:07:51.235Z,1.63
2019-05-05T21:10:23.962Z,1.10
2019-05-05T21:12:54.416Z,1.07
2019-05-05T21:15:24.774Z,2.10
2019-05-05T21:17:54.564Z,1.03
2019-05-05T21:20:25.410Z,1.73
2019-05-05T21:22:56.701Z,1.10
2019-05-05T21:25:27.953Z,0.90
2019-05-05T21:27:57.628Z,1.00
2019-05-05T21:30:27.173Z,0.80
2019-05-05T21:32:56.839Z,0.67
2019-05-05T21:35:26.354Z,4.80
2019-05-05T21:37:55.904Z,0.90
2019-05-05T21:40:26.135Z,0.80
2019-05-05T21:42:55.605Z,1.67
2019-05-05T21:45:25.138Z,0.87
2019-05-05T21:47:55.043Z,0.90
2019-05-05T21:50:29.264Z,0.70
2019-05-05T21:53:04.603Z,0.63
2019-05-05T21:55:36.424Z,1.33
2019-05-05T21:58:22.538Z,0.87
2019-05-05T22:00:54.644Z,1.90
2019-05-05T22:03:25.732Z,1.23
2019-05-05T22:05:56.023Z,1.73
2019-05-05T22:08:25.628Z,1.17
2019-05-05T22:10:55.288Z,1.07
2019-05-05T22:13:24.888Z,0.87
2019-05-05T22:15:54.676Z,1.13
2019-05-05T22:18:24.174Z,2.43
2019-05-05T22:20:55.349Z,2.33
2019-05-05T22:23:25.076Z,1.37
2019-05-05T22:25:54.769Z,3.53
2019-05-05T22:28:26.512Z,2.83
2019-05-05T22:30:56.310Z,2.50
2019-05-05T22:33:26.059Z,1.67
2019-05-05T22:35:55.745Z,1.47
2019-05-05T22:38:26.901Z,2.90
2019-05-05T22:40:56.579Z,3.30
2019-05-05T22:43:27.073Z,0.87
2019-05-05T22:45:56.624Z,0.60
2019-05-05T22:48:26.312Z,0.50
2019-05-05T22:50:55.838Z,0.60
2019-05-05T22:53:25.431Z,0.60
2019-05-05T22:55:55.027Z,0.70
2019-05-05T22:58:24.686Z,0.80
2019-05-05T23:00:54.873Z,1.23
2019-05-05T23:03:46.099Z,0.90
2019-05-05T23:06:22.019Z,0.70
2019-05-05T23:08:51.423Z,0.70
2019-05-05T23:11:20.933Z,0.60
2019-05-05T23:13:50.567Z,0.50
2019-05-05T23:16:26.490Z,0.40
2019-05-05T23:18:57.267Z,0.60
2019-05-05T23:21:28.600Z,0.60
2019-05-05T23:24:03.727Z,0.73
2019-05-05T23:26:47.961Z,0.80
2019-05-05T23:29:18.343Z,3.80
2019-05-05T23:31:47.855Z,1.03
2019-05-05T23:34:17.376Z,0.80
2019-05-05T23:36:48.561Z,0.67
2019-05-05T23:39:18.164Z,0.63
2019-05-05T23:41:48.456Z,0.70
2019-05-05T23:44:18.017Z,0.67
2019-05-05T23:46:47.623Z,0.67
2019-05-05T23:49:17.246Z,0.90
2019-05-05T23:51:46.772Z,0.53
2019-05-05T23:54:16.433Z,0.50
2019-05-05T23:56:46.016Z,0.57
2019-05-05T23:59:15.806Z,0.60
